Time;durP1;ratioP1;P1;durP2;ratioP2;P2;SDS_P1;SDS_P2;PMS_P1;PMS_P2;Temp;Humidity;BMP_temperature;BMP_pressure;BME280_temperature;BME280_humidity;BME280_pressure;Samples;Min_cycle;Max_cycle;Signal;HPM_P1;HPM_P2
2021/05/30 00:00:50;;;;;;;6.32;2.97;;;19.10;98.10;;;;;;4784872;29;20077;-91
2021/05/30 00:03:17;;;;;;;5.63;3.10;;;19.00;98.10;;;;;;4784705;30;20039;-91
2021/05/30 00:05:43;;;;;;;5.60;2.97;;;18.90;98.30;;;;;;4784984;30;20367;-89
2021/05/30 00:08:09;;;;;;;6.88;3.38;;;18.90;98.30;;;;;;4784554;30;20032;-91
2021/05/30 00:10:35;;;;;;;4.20;2.97;;;18.90;98.50;;;;;;4769692;30;20101;-90
2021/05/30 00:13:02;;;;;;;6.85;3.35;;;18.80;98.70;;;;;;4784189;29;20055;-91
2021/05/30 00:15:28;;;;;;;5.13;2.67;;;18.70;98.80;;;;;;4784610;29;20072;-91
2021/05/30 00:17:54;;;;;;;8.10;3.65;;;18.70;98.90;;;;;;4771031;29;20393;-91
2021/05/30 00:20:20;;;;;;;4.57;3.03;;;18.70;99.10;;;;;;4769916;30;20024;-91
2021/05/30 00:22:46;;;;;;;8.05;3.05;;;18.60;99.20;;;;;;4770536;30;20108;-90
2021/05/30 00:25:12;;;;;;;4.30;2.97;;;18.70;99.30;;;;;;4784649;29;20032;-90
2021/05/30 00:27:38;;;;;;;6.00;3.10;;;18.70;99.30;;;;;;4770690;30;20110;-90
2021/05/30 00:30:05;;;;;;;4.38;2.60;;;18.70;99.30;;;;;;4784188;30;20069;-91
2021/05/30 00:32:31;;;;;;;5.32;3.25;;;18.60;99.40;;;;;;4783932;30;20048;-90
2021/05/30 00:34:57;;;;;;;4.70;2.20;;;18.60;99.40;;;;;;4753463;30;20047;-91
2021/05/30 00:37:23;;;;;;;4.35;2.33;;;18.60;99.70;;;;;;4769726;30;20299;-90
2021/05/30 00:39:49;;;;;;;5.05;2.80;;;18.60;99.70;;;;;;4769560;30;20036;-90
2021/05/30 00:42:15;;;;;;;4.28;2.97;;;18.50;99.90;;;;;;4784222;29;20040;-90
2021/05/30 00:44:41;;;;;;;4.90;3.25;;;18.60;99.90;;;;;;4784655;29;20040;-91
2021/05/30 00:47:07;;;;;;;3.85;2.80;;;18.60;99.90;;;;;;4784735;29;20081;-90
2021/05/30 00:49:33;;;;;;;4.70;2.33;;;18.60;99.90;;;;;;4795346;29;20087;-88
2021/05/30 00:51:59;;;;;;;3.08;2.40;;;18.60;99.90;;;;;;4794649;29;20056;-89
2021/05/30 00:54:26;;;;;;;4.47;3.10;;;18.60;99.90;;;;;;4784644;29;20031;-91
2021/05/30 00:56:52;;;;;;;4.53;3.00;;;18.60;99.90;;;;;;4784369;29;20401;-89
2021/05/30 00:59:18;;;;;;;4.03;3.20;;;18.60;99.90;;;;;;4770572;30;20043;-89
2021/05/30 01:01:44;;;;;;;5.20;3.20;;;18.50;99.90;;;;;;4784585;29;20149;-89
2021/05/30 01:04:11;;;;;;;3.55;2.55;;;18.50;99.90;;;;;;4784072;29;20392;-90
2021/05/30 01:06:39;;;;;;;4.95;2.85;;;18.50;99.90;;;;;;4784480;29;20509;-89
2021/05/30 01:09:06;;;;;;;8.65;3.28;;;18.50;99.90;;;;;;4784573;29;20089;-90
2021/05/30 01:11:33;;;;;;;3.63;2.58;;;18.40;99.90;;;;;;4784136;29;20065;-91
2021/05/30 01:13:59;;;;;;;4.40;3.03;;;18.40;99.90;;;;;;4766172;30;20502;-90
2021/05/30 01:16:26;;;;;;;5.68;2.90;;;18.40;99.90;;;;;;4766552;30;20528;-90
2021/05/30 01:18:56;;;;;;;3.42;2.47;;;18.50;99.90;;;;;;4766619;30;20024;-90
2021/05/30 01:21:22;;;;;;;4.07;2.80;;;18.50;99.90;;;;;;4776974;29;20424;-91
2021/05/30 01:23:53;;;;;;;3.67;2.38;;;18.40;99.90;;;;;;4784023;29;20613;-89
2021/05/30 01:26:20;;;;;;;3.85;2.55;;;18.40;99.90;;;;;;4783911;29;20131;-90
2021/05/30 01:28:46;;;;;;;4.78;3.05;;;18.40;99.90;;;;;;4769280;30;20040;-91
2021/05/30 01:31:13;;;;;;;4.13;2.97;;;18.50;99.90;;;;;;4783862;29;20039;-90
2021/05/30 01:33:39;;;;;;;4.72;2.63;;;18.50;99.90;;;;;;4780375;30;20070;-90
2021/05/30 01:36:05;;;;;;;3.87;2.87;;;18.50;99.90;;;;;;4783723;29;20487;-90
2021/05/30 01:38:32;;;;;;;5.55;3.20;;;18.50;99.90;;;;;;4783891;29;20795;-90
2021/05/30 01:40:58;;;;;;;4.32;3.50;;;18.50;99.90;;;;;;4783848;29;20108;-90
2021/05/30 01:43:24;;;;;;;4.30;2.45;;;18.50;99.90;;;;;;4787445;29;20046;-90
2021/05/30 01:45:50;;;;;;;4.93;3.25;;;18.60;99.90;;;;;;4787027;29;20027;-90
2021/05/30 01:48:16;;;;;;;4.03;3.15;;;18.50;99.90;;;;;;4787515;29;20036;-91
2021/05/30 01:50:47;;;;;;;4.13;2.75;;;18.60;99.90;;;;;;4787326;29;20447;-91
2021/05/30 01:53:25;;;;;;;4.88;3.63;;;18.60;99.90;;;;;;4787272;29;20042;-90
2021/05/30 01:58:18;;;;;;;5.32;3.03;;;18.50;99.90;;;;;;4767048;30;20087;-90
2021/05/30 02:00:48;;;;;;;4.72;2.90;;;18.50;99.90;;;;;;4804465;30;20124;-91
2021/05/30 02:03:15;;;;;;;4.20;3.17;;;18.60;99.90;;;;;;4790323;29;20036;-90
2021/05/30 02:05:45;;;;;;;5.97;2.80;;;18.50;99.90;;;;;;4786779;30;20043;-90
2021/05/30 02:08:11;;;;;;;6.93;3.20;;;18.40;99.90;;;;;;4787775;29;20044;-92
2021/05/30 02:10:40;;;;;;;4.63;3.30;;;18.40;99.90;;;;;;4786598;29;20120;-88
2021/05/30 02:13:08;;;;;;;6.15;3.25;;;18.30;99.90;;;;;;4786612;30;20040;-90
2021/05/30 02:15:35;;;;;;;5.20;3.33;;;18.30;99.90;;;;;;4786343;29;20038;-90
2021/05/30 02:18:01;;;;;;;5.28;3.20;;;18.30;99.90;;;;;;4786455;29;20405;-90
2021/05/30 02:20:32;;;;;;;5.95;2.85;;;18.20;99.90;;;;;;4786708;29;20481;-90
2021/05/30 02:22:57;;;;;;;5.63;3.17;;;18.10;99.90;;;;;;4786417;29;20036;-89
2021/05/30 02:25:24;;;;;;;4.32;3.72;;;18.00;99.90;;;;;;4786508;29;20039;-90
2021/05/30 02:27:51;;;;;;;6.40;3.50;;;17.90;99.90;;;;;;4756884;30;20066;-90
2021/05/30 02:30:18;;;;;;;6.03;4.00;;;17.80;99.90;;;;;;4758876;30;20104;-90
2021/05/30 02:32:44;;;;;;;4.68;3.70;;;17.70;99.90;;;;;;4771515;30;20059;-90
2021/05/30 02:35:10;;;;;;;7.03;3.85;;;17.70;99.90;;;;;;4786166;29;20036;-89
2021/05/30 02:37:37;;;;;;;6.18;4.03;;;17.70;99.90;;;;;;4786343;30;20046;-90
2021/05/30 02:40:05;;;;;;;5.75;4.03;;;17.80;99.90;;;;;;4786258;29;20053;-91
2021/05/30 02:42:31;;;;;;;7.05;4.07;;;17.80;99.90;;;;;;4756299;29;20042;-87
2021/05/30 02:44:57;;;;;;;7.93;3.67;;;17.80;99.90;;;;;;4786400;29;20051;-89
2021/05/30 02:47:23;;;;;;;6.93;4.75;;;17.80;99.90;;;;;;4785892;29;20040;-90
2021/05/30 02:49:49;;;;;;;6.82;4.10;;;17.90;99.90;;;;;;4786365;29;20046;-90
2021/05/30 02:52:15;;;;;;;5.53;3.40;;;17.90;99.90;;;;;;4785605;29;20059;-89
2021/05/30 02:54:41;;;;;;;7.20;4.43;;;18.00;99.90;;;;;;4770648;30;20023;-90
2021/05/30 02:57:07;;;;;;;6.40;4.20;;;18.00;99.90;;;;;;4785883;29;20520;-87
2021/05/30 02:59:33;;;;;;;5.80;3.70;;;18.00;99.90;;;;;;4785762;29;20032;-89
2021/05/30 03:01:59;;;;;;;9.38;4.32;;;18.00;99.90;;;;;;4785805;29;20409;-90
2021/05/30 03:04:25;;;;;;;9.67;4.03;;;18.00;99.90;;;;;;4785780;29;20028;-87
2021/05/30 03:06:51;;;;;;;4.60;3.45;;;18.10;99.90;;;;;;4782708;29;20301;-90
2021/05/30 03:09:17;;;;;;;10.52;4.32;;;18.10;99.90;;;;;;4789246;29;20048;-86
2021/05/30 03:11:43;;;;;;;5.90;4.07;;;18.20;99.90;;;;;;4797436;29;20048;-89
2021/05/30 03:14:10;;;;;;;6.35;4.65;;;18.10;99.90;;;;;;4781880;30;20028;-89
2021/05/30 03:16:36;;;;;;;8.68;4.70;;;18.20;99.90;;;;;;4771131;30;20043;-89
2021/05/30 03:19:02;;;;;;;9.35;4.70;;;18.20;99.90;;;;;;4785575;29;20062;-90
2021/05/30 03:21:28;;;;;;;7.80;5.13;;;18.20;99.90;;;;;;4785728;29;20544;-89
2021/05/30 03:23:54;;;;;;;7.83;4.50;;;18.20;99.90;;;;;;4755587;30;20031;-88
2021/05/30 03:26:20;;;;;;;6.63;4.53;;;18.20;99.90;;;;;;4785701;29;20269;-90
2021/05/30 03:28:45;;;;;;;19.15;5.30;;;18.20;99.90;;;;;;4782436;29;20143;-89
2021/05/30 03:31:11;;;;;;;7.90;4.10;;;18.20;99.90;;;;;;4775721;30;20040;-89
2021/05/30 03:33:38;;;;;;;7.38;4.53;;;18.20;99.90;;;;;;4783993;30;20301;-90
2021/05/30 03:36:07;;;;;;;11.45;5.60;;;18.30;99.90;;;;;;4785057;29;20048;-90
2021/05/30 03:38:34;;;;;;;7.50;4.22;;;18.30;99.90;;;;;;4785145;29;20035;-89
2021/05/30 03:41:05;;;;;;;9.55;4.70;;;18.40;99.90;;;;;;4770185;30;20035;-89
2021/05/30 03:43:32;;;;;;;8.55;5.20;;;18.50;99.90;;;;;;4784825;29;20118;-90
2021/05/30 03:45:58;;;;;;;6.82;4.53;;;18.50;99.90;;;;;;4785435;29;20405;-89
2021/05/30 03:48:24;;;;;;;6.78;4.63;;;18.50;99.90;;;;;;4782360;30;20047;-89
2021/05/30 03:50:50;;;;;;;6.85;4.15;;;18.50;99.90;;;;;;4767093;29;20601;-89
2021/05/30 03:53:17;;;;;;;8.10;4.03;;;18.50;99.90;;;;;;4781996;29;20040;-89
2021/05/30 03:55:44;;;;;;;5.38;4.07;;;18.50;99.90;;;;;;4784869;29;20039;-89
2021/05/30 03:58:11;;;;;;;6.50;4.38;;;18.40;99.90;;;;;;4784751;29;20044;-90
2021/05/30 04:00:37;;;;;;;7.15;4.20;;;18.50;99.90;;;;;;4785092;29;20032;-89
2021/05/30 04:03:04;;;;;;;5.90;3.80;;;18.30;99.90;;;;;;4785192;29;20047;-89
2021/05/30 04:05:30;;;;;;;6.60;4.05;;;18.40;99.90;;;;;;4784222;29;20064;-90
2021/05/30 04:07:56;;;;;;;6.53;3.97;;;18.30;99.90;;;;;;4785197;29;20096;-89
2021/05/30 04:10:22;;;;;;;6.65;3.92;;;18.20;99.90;;;;;;4769552;30;20036;-88
2021/05/30 04:12:48;;;;;;;6.85;4.22;;;18.00;99.90;;;;;;4784829;29;20119;-90
2021/05/30 04:15:15;;;;;;;7.18;3.50;;;18.00;99.90;;;;;;4784419;29;20119;-89
2021/05/30 04:17:42;;;;;;;6.90;3.75;;;18.00;99.90;;;;;;4785104;29;20122;-89
2021/05/30 04:20:12;;;;;;;6.35;3.88;;;17.90;99.90;;;;;;4799596;29;20046;-88
2021/05/30 04:22:38;;;;;;;5.53;3.53;;;17.90;99.90;;;;;;4790709;29;20036;-90
2021/05/30 04:25:07;;;;;;;8.88;4.68;;;18.00;99.90;;;;;;4769806;30;20092;-89
2021/05/30 04:27:33;;;;;;;5.68;3.78;;;17.90;99.90;;;;;;4785093;29;20088;-90
2021/05/30 04:29:59;;;;;;;5.63;3.47;;;17.90;99.90;;;;;;4785523;30;20046;-89
2021/05/30 04:32:25;;;;;;;6.10;3.15;;;17.80;99.90;;;;;;4770833;30;20094;-89
2021/05/30 04:34:51;;;;;;;4.97;2.95;;;17.80;99.90;;;;;;4783969;29;20024;-88
2021/05/30 04:37:18;;;;;;;6.22;3.88;;;17.90;99.90;;;;;;4769460;29;20044;-90
2021/05/30 04:39:44;;;;;;;5.22;3.50;;;17.90;99.90;;;;;;4783984;30;20397;-89
2021/05/30 04:42:10;;;;;;;7.03;3.75;;;17.90;99.90;;;;;;4754614;30;20519;-90
2021/05/30 04:44:36;;;;;;;5.20;3.70;;;18.00;99.90;;;;;;4754573;30;20119;-89
2021/05/30 04:47:02;;;;;;;5.40;3.67;;;17.90;99.90;;;;;;4784407;29;20067;-89
2021/05/30 04:49:27;;;;;;;8.02;4.35;;;17.90;99.90;;;;;;4769687;30;20313;-90
2021/05/30 04:51:53;;;;;;;6.00;3.70;;;17.90;99.90;;;;;;4784448;30;20456;-90
2021/05/30 04:54:19;;;;;;;8.38;3.78;;;17.80;99.90;;;;;;4784318;29;20297;-90
2021/05/30 04:56:45;;;;;;;4.67;3.53;;;17.90;99.90;;;;;;4784163;29;20028;-90
2021/05/30 04:59:11;;;;;;;7.87;3.80;;;18.00;99.90;;;;;;4784455;30;20343;-90
2021/05/30 05:01:37;;;;;;;7.38;4.10;;;18.10;99.90;;;;;;4784291;29;20858;-90
2021/05/30 05:04:03;;;;;;;9.30;3.33;;;18.10;99.90;;;;;;4784304;29;20039;-89
2021/05/30 05:06:29;;;;;;;10.65;3.60;;;18.10;99.90;;;;;;4754356;30;20285;-90
2021/05/30 05:08:55;;;;;;;8.63;3.05;;;18.20;99.90;;;;;;4784491;29;20538;-90
2021/05/30 05:11:21;;;;;;;5.90;2.95;;;18.20;99.90;;;;;;4783805;29;20047;-89
2021/05/30 05:13:47;;;;;;;5.20;3.20;;;18.20;99.90;;;;;;4784287;29;20065;-89
2021/05/30 05:16:13;;;;;;;7.32;3.00;;;18.20;99.90;;;;;;4784565;29;20039;-89
2021/05/30 05:18:39;;;;;;;4.00;2.65;;;18.30;99.90;;;;;;4787557;29;20572;-89
2021/05/30 05:21:06;;;;;;;4.10;2.50;;;18.40;99.90;;;;;;4787384;29;20129;-89
2021/05/30 05:23:32;;;;;;;3.85;2.60;;;18.50;99.90;;;;;;4787597;29;20039;-90
2021/05/30 05:26:04;;;;;;;4.47;2.40;;;18.70;99.50;;;;;;4787694;29;20039;-89
2021/05/30 05:28:32;;;;;;;3.35;1.83;;;18.80;98.70;;;;;;4787169;29;20040;-89
2021/05/30 05:30:59;;;;;;;4.30;2.15;;;18.90;98.90;;;;;;4803575;29;20493;-90
2021/05/30 05:33:25;;;;;;;3.95;2.20;;;19.00;98.50;;;;;;4790714;29;20409;-90
2021/05/30 05:35:51;;;;;;;3.35;2.08;;;19.10;97.50;;;;;;4787564;29;20048;-89
2021/05/30 05:38:18;;;;;;;3.17;1.70;;;19.20;96.60;;;;;;4785896;29;20848;-89
2021/05/30 05:40:44;;;;;;;2.70;1.92;;;19.20;95.80;;;;;;4771394;30;20035;-88
2021/05/30 05:43:11;;;;;;;1.67;1.52;;;19.20;95.50;;;;;;4771646;30;20047;-89
2021/05/30 05:45:37;;;;;;;3.45;1.63;;;19.20;95.10;;;;;;4787226;29;20039;-87
2021/05/30 05:48:12;;;;;;;5.25;1.35;;;19.20;95.00;;;;;;4786893;29;20031;-89
2021/05/30 05:50:39;;;;;;;2.38;1.52;;;19.30;94.50;;;;;;4787005;29;20038;-90
2021/05/30 05:53:05;;;;;;;1.75;1.48;;;19.30;93.90;;;;;;4786730;29;20142;-89
2021/05/30 05:55:33;;;;;;;2.67;1.48;;;19.40;93.60;;;;;;4787086;29;20036;-88
2021/05/30 05:57:59;;;;;;;5.30;2.50;;;19.40;93.00;;;;;;4786702;29;20402;-88
2021/05/30 06:00:25;;;;;;;3.13;1.40;;;19.50;92.70;;;;;;4787035;29;20493;-88
2021/05/30 06:02:52;;;;;;;9.98;2.53;;;19.50;92.70;;;;;;4786859;29;20028;-90
2021/05/30 06:05:20;;;;;;;2.70;1.88;;;19.50;92.60;;;;;;4756517;29;20485;-78
2021/05/30 06:07:47;;;;;;;3.35;1.40;;;19.50;92.40;;;;;;4771954;30;20036;-78
2021/05/30 06:10:15;;;;;;;3.40;1.98;;;19.50;92.60;;;;;;4771288;30;20043;-80
2021/05/30 06:12:41;;;;;;;2.38;1.60;;;19.50;92.70;;;;;;4785000;30;20036;-82
2021/05/30 06:15:08;;;;;;;2.38;1.77;;;19.40;93.00;;;;;;4769425;29;20485;-80
2021/05/30 06:17:34;;;;;;;2.83;1.65;;;19.50;93.10;;;;;;4790378;29;20039;-80
2021/05/30 06:20:00;;;;;;;2.42;1.92;;;19.50;93.50;;;;;;4792865;29;20031;-80
2021/05/30 06:22:27;;;;;;;2.60;1.55;;;19.50;93.60;;;;;;4777524;29;20036;-80
2021/05/30 06:24:54;;;;;;;2.67;1.90;;;19.50;93.50;;;;;;4776923;29;20028;-79
2021/05/30 06:27:20;;;;;;;3.17;1.80;;;19.60;93.50;;;;;;4776334;29;20117;-79
2021/05/30 06:29:47;;;;;;;5.03;1.70;;;19.60;93.50;;;;;;4776251;30;20031;-79
2021/05/30 06:32:13;;;;;;;5.85;1.92;;;19.60;93.20;;;;;;4777184;29;20067;-79
2021/05/30 06:34:40;;;;;;;5.15;1.92;;;19.70;92.90;;;;;;4776477;29;20481;-79
2021/05/30 06:37:06;;;;;;;2.75;1.67;;;19.70;93.20;;;;;;4790446;29;20116;-81
2021/05/30 06:39:32;;;;;;;4.57;2.15;;;19.70;92.80;;;;;;4782841;29;20040;-80
2021/05/30 06:41:58;;;;;;;5.80;2.50;;;19.80;92.60;;;;;;4792395;29;20106;-80
2021/05/30 06:44:24;;;;;;;4.83;3.20;;;19.80;92.20;;;;;;4775720;30;20115;-80
2021/05/30 06:46:50;;;;;;;10.30;4.57;;;19.80;92.00;;;;;;4793081;29;20096;-80
2021/05/30 06:49:16;;;;;;;10.55;5.82;;;19.80;92.00;;;;;;4778624;29;20476;-80
2021/05/30 06:51:42;;;;;;;20.35;13.02;;;19.90;91.60;;;;;;4775529;29;20556;-80
2021/05/30 06:54:09;;;;;;;33.22;18.45;;;19.80;91.70;;;;;;4778418;29;20031;-80
2021/05/30 06:56:36;;;;;;;53.47;33.63;;;19.80;92.00;;;;;;4785468;30;20393;-80
2021/05/30 06:59:02;;;;;;;74.15;40.92;;;19.80;92.50;;;;;;4791548;29;20062;-80
2021/05/30 07:01:28;;;;;;;85.03;47.30;;;19.80;92.90;;;;;;4791882;29;20031;-80
2021/05/30 07:03:54;;;;;;;88.05;52.75;;;19.90;93.20;;;;;;4774328;30;20039;-80
2021/05/30 07:06:22;;;;;;;91.67;56.13;;;19.90;93.40;;;;;;4775761;29;20110;-80
2021/05/30 07:08:49;;;;;;;95.32;53.35;;;19.90;93.60;;;;;;4779158;29;20280;-79
2021/05/30 07:11:14;;;;;;;98.95;57.70;;;19.90;93.80;;;;;;4776444;29;20032;-80
2021/05/30 07:13:41;;;;;;;92.60;54.38;;;19.80;94.10;;;;;;4774807;30;20111;-80
2021/05/30 07:16:06;;;;;;;78.50;46.95;;;19.90;94.40;;;;;;4776182;30;20541;-81
2021/05/30 07:18:32;;;;;;;75.07;45.78;;;19.90;94.60;;;;;;4775425;29;20118;-81
2021/05/30 07:20:59;;;;;;;77.27;47.70;;;19.90;94.60;;;;;;4770655;30;20130;-80
2021/05/30 07:23:25;;;;;;;41.45;25.70;;;20.00;94.70;;;;;;4789737;29;20070;-81
2021/05/30 07:25:52;;;;;;;33.72;20.17;;;20.10;94.40;;;;;;4774821;29;20043;-80
2021/05/30 07:28:19;;;;;;;42.80;25.08;;;20.20;94.40;;;;;;4790938;29;20058;-80
2021/05/30 07:30:45;;;;;;;42.50;25.80;;;20.30;94.20;;;;;;4776446;29;20533;-80
2021/05/30 07:33:11;;;;;;;51.42;29.67;;;20.30;94.00;;;;;;4776775;29;20509;-79
2021/05/30 07:35:37;;;;;;;64.45;40.40;;;20.40;94.40;;;;;;4773327;29;20059;-80
2021/05/30 07:38:04;;;;;;;48.17;32.58;;;20.40;94.70;;;;;;4774229;29;20039;-78
2021/05/30 07:40:32;;;;;;;51.00;32.05;;;20.60;95.20;;;;;;4779662;29;20088;-78
2021/05/30 07:43:00;;;;;;;56.45;35.60;;;20.60;95.10;;;;;;4779262;29;20419;-78
2021/05/30 07:45:27;;;;;;;49.10;29.52;;;20.70;95.40;;;;;;4780887;29;20173;-78
2021/05/30 07:47:53;;;;;;;42.80;27.98;;;20.80;94.80;;;;;;4779312;29;20039;-78
2021/05/30 07:50:20;;;;;;;48.55;29.52;;;20.90;94.50;;;;;;4778551;29;20031;-78
2021/05/30 07:52:46;;;;;;;46.03;29.58;;;21.00;94.90;;;;;;4776476;29;20036;-78
2021/05/30 07:55:14;;;;;;;35.05;22.48;;;21.00;94.90;;;;;;4776678;29;20035;-79
2021/05/30 07:57:40;;;;;;;25.33;13.95;;;21.10;94.10;;;;;;4777161;29;20028;-79
2021/05/30 08:00:10;;;;;;;30.38;19.83;;;21.10;92.90;;;;;;4775576;29;20389;-78
2021/05/30 08:02:39;;;;;;;22.30;12.63;;;21.20;93.90;;;;;;4778402;30;20126;-79
2021/05/30 08:05:06;;;;;;;16.35;9.13;;;21.10;93.90;;;;;;4774449;29;20098;-78
2021/05/30 08:07:33;;;;;;;26.92;13.15;;;21.00;94.30;;;;;;4770167;29;20500;-78
2021/05/30 08:09:59;;;;;;;18.77;9.18;;;21.00;94.20;;;;;;4774557;29;20061;-77
2021/05/30 08:12:26;;;;;;;17.83;9.05;;;21.00;93.90;;;;;;4776905;29;20482;-78
2021/05/30 08:14:53;;;;;;;22.15;8.68;;;21.10;94.30;;;;;;4782929;29;20089;-79
2021/05/30 08:17:19;;;;;;;6.47;2.78;;;21.10;94.40;;;;;;4779147;30;20111;-80
2021/05/30 08:19:45;;;;;;;5.25;1.48;;;21.20;93.20;;;;;;4791142;29;20169;-79
2021/05/30 08:22:12;;;;;;;3.47;1.73;;;21.20;94.10;;;;;;4776328;30;20118;-79
2021/05/30 08:24:38;;;;;;;6.35;1.52;;;21.20;93.20;;;;;;4774899;29;20023;-80
2021/05/30 08:27:05;;;;;;;4.47;1.85;;;21.30;93.20;;;;;;4792482;29;20383;-78
2021/05/30 08:29:31;;;;;;;6.85;1.60;;;21.40;93.70;;;;;;4776475;29;20449;-79
2021/05/30 08:31:57;;;;;;;4.53;1.30;;;21.50;92.20;;;;;;4776120;29;20132;-80
2021/05/30 08:34:25;;;;;;;4.90;1.20;;;21.60;91.90;;;;;;4789727;29;20040;-79
2021/05/30 08:36:51;;;;;;;3.70;1.42;;;21.50;90.70;;;;;;4775909;29;20823;-78
2021/05/30 08:39:17;;;;;;;1.95;1.08;;;21.50;90.60;;;;;;4774321;29;20038;-78
2021/05/30 08:41:44;;;;;;;3.55;1.27;;;21.60;89.50;;;;;;4776576;29;20394;-79
2021/05/30 08:44:12;;;;;;;5.35;1.08;;;21.80;89.30;;;;;;4773236;30;20043;-79
2021/05/30 08:46:38;;;;;;;2.70;1.30;;;22.00;90.00;;;;;;4772433;29;20043;-80
2021/05/30 08:49:05;;;;;;;2.40;1.00;;;22.20;90.10;;;;;;4778113;29;20129;-79
2021/05/30 08:51:32;;;;;;;4.78;1.45;;;22.30;89.70;;;;;;4780670;29;20032;-79
2021/05/30 08:53:59;;;;;;;3.47;1.05;;;22.50;88.80;;;;;;4779027;29;20039;-80
2021/05/30 08:56:25;;;;;;;5.20;1.10;;;22.60;86.40;;;;;;4794746;29;20028;-80
2021/05/30 08:58:52;;;;;;;4.68;2.05;;;22.80;85.40;;;;;;4780263;30;20111;-80
2021/05/30 09:01:24;;;;;;;5.10;1.63;;;22.80;85.80;;;;;;4780545;29;20515;-80
2021/05/30 09:04:05;;;;;;;5.28;1.88;;;23.00;86.10;;;;;;4796501;29;20032;-80
2021/05/30 09:06:31;;;;;;;5.47;1.48;;;23.10;87.20;;;;;;4779837;29;20137;-80
2021/05/30 09:08:58;;;;;;;5.85;2.08;;;23.30;85.00;;;;;;4792801;29;20513;-79
2021/05/30 09:11:45;;;;;;;4.75;1.48;;;23.10;86.20;;;;;;4775851;29;20069;-80
2021/05/30 09:14:16;;;;;;;2.53;1.15;;;22.90;87.20;;;;;;4789339;29;20043;-80
2021/05/30 09:17:11;;;;;;;6.25;1.60;;;22.70;89.20;;;;;;4794308;29;20134;-80
2021/05/30 09:19:37;;;;;;;10.90;2.38;;;22.30;90.70;;;;;;4788626;29;20039;-79
2021/05/30 09:22:15;;;;;;;9.63;2.30;;;22.40;91.10;;;;;;4779944;29;20114;-80
2021/05/30 09:24:47;;;;;;;4.65;2.20;;;22.70;91.10;;;;;;4776487;30;20284;-80
2021/05/30 09:27:14;;;;;;;7.63;2.78;;;23.00;90.90;;;;;;4780646;29;20508;-79
2021/05/30 09:29:40;;;;;;;8.45;2.38;;;23.10;90.50;;;;;;4793560;29;20039;-79
2021/05/30 09:32:06;;;;;;;5.70;2.35;;;23.10;90.30;;;;;;4795048;29;20047;-86
2021/05/30 09:34:38;;;;;;;3.45;1.90;;;23.20;90.30;;;;;;4792474;29;20042;-79
2021/05/30 09:37:08;;;;;;;6.75;2.22;;;23.40;89.10;;;;;;4777995;30;20058;-79
2021/05/30 09:39:45;;;;;;;5.88;2.17;;;23.60;89.10;;;;;;4779446;30;20055;-80
2021/05/30 09:42:34;;;;;;;4.40;1.23;;;23.80;89.30;;;;;;4789379;29;20047;-80
2021/05/30 09:45:20;;;;;;;10.75;2.30;;;23.90;87.40;;;;;;4778629;29;20081;-80
2021/05/30 09:47:46;;;;;;;6.22;2.45;;;24.20;85.80;;;;;;4784095;29;20049;-79
2021/05/30 09:50:14;;;;;;;5.78;2.00;;;24.40;84.60;;;;;;4791147;29;20027;-80
2021/05/30 09:52:44;;;;;;;4.72;2.22;;;24.40;85.00;;;;;;4793763;29;20042;-82
2021/05/30 09:55:26;;;;;;;4.35;1.40;;;24.30;88.30;;;;;;4791899;29;20451;-80
2021/05/30 09:58:14;;;;;;;5.75;1.80;;;24.20;88.70;;;;;;4792232;29;20097;-81
2021/05/30 10:00:45;;;;;;;3.33;2.10;;;24.00;90.20;;;;;;4777566;29;20040;-79
2021/05/30 10:03:11;;;;;;;6.63;1.85;;;23.80;90.30;;;;;;4760093;30;20085;-80
2021/05/30 10:05:37;;;;;;;10.57;2.83;;;23.70;90.20;;;;;;4783330;30;20052;-80
2021/05/30 10:08:04;;;;;;;10.77;2.72;;;23.80;90.60;;;;;;4783349;29;20058;-81
2021/05/30 10:10:31;;;;;;;5.10;2.42;;;23.80;90.70;;;;;;4785308;30;20040;-81
2021/05/30 10:13:01;;;;;;;8.82;1.95;;;24.00;90.80;;;;;;4770659;30;20198;-79
2021/05/30 10:15:26;;;;;;;7.88;1.73;;;23.90;90.70;;;;;;4770232;30;20108;-79
2021/05/30 10:17:57;;;;;;;6.97;2.47;;;23.90;90.10;;;;;;4770915;30;20118;-78
2021/05/30 10:20:24;;;;;;;4.00;1.73;;;23.80;90.50;;;;;;4771356;30;20763;-78
2021/05/30 10:22:55;;;;;;;8.00;2.40;;;23.90;90.50;;;;;;4771718;30;20055;-78
2021/05/30 10:25:28;;;;;;;4.28;2.53;;;24.00;90.40;;;;;;4770714;30;20114;-78
2021/05/30 10:28:10;;;;;;;;;;;24.00;87.40;;;;;;4771797;30;20165;-79
2021/05/30 10:30:38;;;;;;;8.00;1.40;;;23.70;85.60;;;;;;4771437;30;19956;-79
2021/05/30 10:33:21;;;;;;;2.08;1.27;;;23.80;84.90;;;;;;4770850;30;20056;-80
2021/05/30 10:35:49;;;;;;;10.60;1.83;;;23.80;84.90;;;;;;4785166;29;20047;-81
2021/05/30 10:38:40;;;;;;;4.03;1.95;;;23.90;84.10;;;;;;4794580;29;20489;-84
2021/05/30 10:41:18;;;;;;;7.80;3.10;;;23.80;87.20;;;;;;4773189;30;20040;-87
2021/05/30 10:43:45;;;;;;;2.45;1.52;;;23.90;88.40;;;;;;4770969;30;20035;-86
2021/05/30 10:46:12;;;;;;;5.30;2.40;;;23.90;86.50;;;;;;4769087;30;20225;-81
2021/05/30 10:48:40;;;;;;;4.75;2.67;;;23.80;87.00;;;;;;4784700;29;20089;-82
2021/05/30 10:51:29;;;;;;;3.67;2.15;;;23.80;86.50;;;;;;4784761;29;20039;-82
2021/05/30 10:54:07;;;;;;;4.10;2.10;;;23.70;86.70;;;;;;4785140;29;20612;-81
2021/05/30 10:56:35;;;;;;;7.10;2.63;;;23.80;85.80;;;;;;4787193;29;20596;-80
2021/05/30 10:59:04;;;;;;;6.15;1.88;;;23.90;85.40;;;;;;4790589;29;20032;-81
2021/05/30 11:01:49;;;;;;;2.25;1.95;;;23.80;83.40;;;;;;4783199;30;20121;-82
2021/05/30 11:04:33;;;;;;;3.28;1.63;;;23.70;85.20;;;;;;4789824;29;20085;-82
2021/05/30 11:07:01;;;;;;;5.97;1.92;;;23.80;81.90;;;;;;4784176;29;20087;-85
2021/05/30 11:09:49;;;;;;;4.95;2.63;;;23.50;84.50;;;;;;4791556;29;20031;-84
2021/05/30 11:12:30;;;;;;;6.03;2.70;;;23.40;87.50;;;;;;4774790;30;20547;-83
2021/05/30 11:15:09;;;;;;;5.70;3.00;;;23.20;86.50;;;;;;4791053;29;20047;-81
2021/05/30 11:17:35;;;;;;;4.35;2.17;;;23.30;84.90;;;;;;4778489;30;20027;-80
2021/05/30 11:20:02;;;;;;;15.98;3.10;;;23.40;86.30;;;;;;4799639;29;20027;-79
2021/05/30 11:22:59;;;;;;;6.88;2.60;;;23.40;88.30;;;;;;4776727;30;20092;-79
2021/05/30 11:25:34;;;;;;;9.60;2.67;;;23.20;90.40;;;;;;4776427;30;20038;-82
2021/05/30 11:28:11;;;;;;;4.97;2.70;;;23.10;90.70;;;;;;4776388;30;20028;-79
2021/05/30 11:30:42;;;;;;;5.00;2.55;;;23.00;90.40;;;;;;4779633;30;20039;-81
2021/05/30 11:33:13;;;;;;;7.38;3.08;;;22.80;90.20;;;;;;4773924;29;20127;-84
2021/05/30 11:35:40;;;;;;;4.70;1.58;;;22.50;90.10;;;;;;4782551;29;20039;-83
2021/05/30 11:38:07;;;;;;;5.45;2.00;;;22.30;88.80;;;;;;4776436;30;20168;-78
2021/05/30 11:40:35;;;;;;;5.70;1.98;;;22.30;88.20;;;;;;4778912;30;20028;-82
2021/05/30 11:43:17;;;;;;;3.03;1.55;;;22.30;90.30;;;;;;4785357;30;20044;-78
2021/05/30 11:45:46;;;;;;;2.83;1.70;;;22.10;88.10;;;;;;4779851;29;21098;-79
2021/05/30 11:48:17;;;;;;;2.38;1.70;;;22.00;89.70;;;;;;4795331;29;20489;-84
2021/05/30 11:50:53;;;;;;;5.20;2.00;;;21.90;90.10;;;;;;4779397;29;20035;-78
2021/05/30 11:53:30;;;;;;;6.20;1.60;;;21.90;90.30;;;;;;4774584;30;20493;-87
2021/05/30 11:55:57;;;;;;;6.80;2.20;;;21.90;89.60;;;;;;4777815;29;20147;-77
2021/05/30 11:58:24;;;;;;;2.83;1.52;;;21.70;89.80;;;;;;4779722;30;20058;-79
2021/05/30 12:01:03;;;;;;;4.97;2.50;;;21.60;88.20;;;;;;4775232;30;20034;-87
2021/05/30 12:03:30;;;;;;;5.78;2.00;;;21.40;87.80;;;;;;4781885;30;20507;-81
2021/05/30 12:06:00;;;;;;;4.43;1.48;;;21.40;88.50;;;;;;4775611;30;20031;-77
2021/05/30 12:08:27;;;;;;;3.38;1.70;;;21.20;89.40;;;;;;4782365;29;20412;-78
2021/05/30 12:10:57;;;;;;;4.45;1.77;;;21.30;87.50;;;;;;4774984;30;20691;-78
2021/05/30 12:13:28;;;;;;;5.22;1.77;;;21.20;89.50;;;;;;4778491;30;20051;-79
2021/05/30 12:15:56;;;;;;;4.70;1.65;;;21.10;90.10;;;;;;4774060;29;20089;-86
2021/05/30 12:18:22;;;;;;;7.07;2.45;;;21.10;90.00;;;;;;4778811;30;20039;-80
2021/05/30 12:20:49;;;;;;;7.28;2.83;;;21.20;91.50;;;;;;4772289;29;20093;-83
2021/05/30 12:23:22;;;;;;;5.65;2.40;;;21.10;91.80;;;;;;4779401;29;20045;-82
2021/05/30 12:25:51;;;;;;;4.25;2.28;;;21.00;92.20;;;;;;4777778;29;20042;-78
2021/05/30 12:28:18;;;;;;;6.03;1.85;;;20.80;93.20;;;;;;4775185;30;20544;-78
2021/05/30 12:30:52;;;;;;;5.28;2.10;;;20.60;94.00;;;;;;4782412;29;20062;-78
2021/05/30 12:33:20;;;;;;;5.53;2.13;;;20.40;94.20;;;;;;4777981;30;20464;-78
2021/05/30 12:35:52;;;;;;;4.07;1.73;;;20.30;93.90;;;;;;4774021;29;20493;-78
2021/05/30 12:38:29;;;;;;;4.60;1.75;;;20.20;94.30;;;;;;4790072;29;20086;-78
2021/05/30 12:40:56;;;;;;;6.13;3.45;;;20.30;94.40;;;;;;4793243;29;20042;-77
2021/05/30 12:43:41;;;;;;;8.70;3.83;;;20.20;94.50;;;;;;4775109;30;20032;-78
2021/05/30 12:46:10;;;;;;;6.35;2.28;;;20.10;94.60;;;;;;4774570;29;20486;-77
2021/05/30 12:48:47;;;;;;;4.03;2.22;;;20.10;94.90;;;;;;4775510;30;20035;-77
2021/05/30 12:51:20;;;;;;;6.18;3.20;;;19.90;95.40;;;;;;4788368;29;20035;-81
2021/05/30 12:53:46;;;;;;;11.13;4.60;;;19.90;94.80;;;;;;4785082;29;20375;-76